sensor_id;sensor_type;location;lat;lon;timestamp;pressure;altitude;pressure_sealevel;temperature;humidity
15487;BME280;7845;53.698;10.078;2024-03-23T00:53:49;100441.69;;;8.74;79.59
15487;BME280;7845;53.698;10.078;2024-03-23T00:56:14;100443.91;;;8.67;79.36
15487;BME280;7845;53.698;10.078;2024-03-23T00:58:39;100420.28;;;8.56;79.28
15487;BME280;7845;53.698;10.078;2024-03-23T01:01:05;100436.88;;;8.68;79.51
15487;BME280;7845;53.698;10.078;2024-03-23T01:03:30;100438.78;;;8.66;79.61
15487;BME280;7845;53.698;10.078;2024-03-23T01:05:59;100438.66;;;8.67;79.60
15487;BME280;7845;53.698;10.078;2024-03-23T01:08:25;100429.25;;;8.65;79.23
15487;BME280;7845;53.698;10.078;2024-03-23T01:10:57;100418.38;;;8.58;79.17
15487;BME280;7845;53.698;10.078;2024-03-23T01:13:23;100418.28;;;8.60;79.57
15487;BME280;7845;53.698;10.078;2024-03-23T01:15:53;100386.56;;;8.39;79.28
15487;BME280;7845;53.698;10.078;2024-03-23T01:18:19;100421.09;;;8.56;80.11
15487;BME280;7845;53.698;10.078;2024-03-23T01:20:45;100414.19;;;8.55;79.90
15487;BME280;7845;53.698;10.078;2024-03-23T01:23:10;100360.69;;;8.22;79.95
15487;BME280;7845;53.698;10.078;2024-03-23T01:25:36;100388.78;;;8.45;79.62
15487;BME280;7845;53.698;10.078;2024-03-23T01:28:01;100404.75;;;8.53;79.69
15487;BME280;7845;53.698;10.078;2024-03-23T01:30:27;100401.41;;;8.51;79.96
15487;BME280;7845;53.698;10.078;2024-03-23T01:32:52;100345.41;;;8.16;79.38
15487;BME280;7845;53.698;10.078;2024-03-23T01:35:17;100337.16;;;8.09;79.38
15487;BME280;7845;53.698;10.078;2024-03-23T01:37:43;100394.72;;;8.47;80.17
15487;BME280;7845;53.698;10.078;2024-03-23T01:40:08;100399.09;;;8.46;80.07
15487;BME280;7845;53.698;10.078;2024-03-23T01:42:33;100383.00;;;8.40;79.80
15487;BME280;7845;53.698;10.078;2024-03-23T01:44:59;100357.50;;;8.31;80.24
15487;BME280;7845;53.698;10.078;2024-03-23T01:47:24;100371.06;;;8.36;79.55
15487;BME280;7845;53.698;10.078;2024-03-23T01:49:49;100347.81;;;8.19;79.78
15487;BME280;7845;53.698;10.078;2024-03-23T01:52:15;100375.16;;;8.40;80.24
15487;BME280;7845;53.698;10.078;2024-03-23T01:54:40;100357.75;;;8.26;80.06
15487;BME280;7845;53.698;10.078;2024-03-23T01:57:06;100352.75;;;8.23;80.11
15487;BME280;7845;53.698;10.078;2024-03-23T01:59:31;100347.59;;;8.22;79.76
15487;BME280;7845;53.698;10.078;2024-03-23T02:01:57;100351.91;;;8.23;79.74
15487;BME280;7845;53.698;10.078;2024-03-23T02:04:22;100358.69;;;8.25;80.38
15487;BME280;7845;53.698;10.078;2024-03-23T02:06:47;100352.75;;;8.23;80.36
15487;BME280;7845;53.698;10.078;2024-03-23T02:09:13;100355.44;;;8.22;80.20
15487;BME280;7845;53.698;10.078;2024-03-23T02:11:38;100353.81;;;8.21;80.12
15487;BME280;7845;53.698;10.078;2024-03-23T02:14:04;100346.16;;;8.18;80.40
15487;BME280;7845;53.698;10.078;2024-03-23T02:16:29;100348.97;;;8.15;80.61
15487;BME280;7845;53.698;10.078;2024-03-23T02:18:54;100342.28;;;8.11;80.12
15487;BME280;7845;53.698;10.078;2024-03-23T02:21:21;100341.66;;;8.07;80.67
15487;BME280;7845;53.698;10.078;2024-03-23T02:23:46;100315.63;;;7.93;80.42
15487;BME280;7845;53.698;10.078;2024-03-23T02:26:12;100304.00;;;7.84;80.79
15487;BME280;7845;53.698;10.078;2024-03-23T02:28:37;100333.50;;;7.99;80.19
15487;BME280;7845;53.698;10.078;2024-03-23T02:31:02;100317.91;;;7.97;81.04
15487;BME280;7845;53.698;10.078;2024-03-23T02:33:29;100309.31;;;7.83;80.73
15487;BME280;7845;53.698;10.078;2024-03-23T02:35:56;100317.41;;;7.92;81.17
15487;BME280;7845;53.698;10.078;2024-03-23T02:38:22;100302.94;;;7.87;81.24
15487;BME280;7845;53.698;10.078;2024-03-23T02:40:47;100315.81;;;7.90;80.65
15487;BME280;7845;53.698;10.078;2024-03-23T02:43:12;100273.88;;;7.66;80.78
15487;BME280;7845;53.698;10.078;2024-03-23T02:45:38;100299.91;;;7.80;80.90
15487;BME280;7845;53.698;10.078;2024-03-23T02:48:05;100315.16;;;7.86;80.84
15487;BME280;7845;53.698;10.078;2024-03-23T02:50:30;100314.53;;;7.83;81.00
15487;BME280;7845;53.698;10.078;2024-03-23T02:52:55;100305.97;;;7.81;80.36
15487;BME280;7845;53.698;10.078;2024-03-23T02:55:22;100313.41;;;7.74;80.49
15487;BME280;7845;53.698;10.078;2024-03-23T02:57:47;100307.13;;;7.77;80.96
15487;BME280;7845;53.698;10.078;2024-03-23T03:00:13;100238.09;;;7.29;80.97
15487;BME280;7845;53.698;10.078;2024-03-23T03:02:38;100303.03;;;7.73;80.72
15487;BME280;7845;53.698;10.078;2024-03-23T03:05:04;100289.97;;;7.60;80.95
15487;BME280;7845;53.698;10.078;2024-03-23T03:07:31;100285.38;;;7.64;81.62
15487;BME280;7845;53.698;10.078;2024-03-23T03:09:56;100289.34;;;7.69;81.57
15487;BME280;7845;53.698;10.078;2024-03-23T03:12:22;100287.34;;;7.73;80.61
15487;BME280;7845;53.698;10.078;2024-03-23T03:14:47;100258.06;;;7.55;81.46
15487;BME280;7845;53.698;10.078;2024-03-23T03:17:13;100256.00;;;7.60;80.96
15487;BME280;7845;53.698;10.078;2024-03-23T03:19:38;100182.00;;;7.09;81.24
15487;BME280;7845;53.698;10.078;2024-03-23T03:22:04;100270.25;;;7.69;81.44
15487;BME280;7845;53.698;10.078;2024-03-23T03:24:29;100218.97;;;7.41;81.18
15487;BME280;7845;53.698;10.078;2024-03-23T03:26:55;100263.13;;;7.71;81.68
15487;BME280;7845;53.698;10.078;2024-03-23T03:29:20;100268.44;;;7.69;81.35
15487;BME280;7845;53.698;10.078;2024-03-23T03:31:45;100274.84;;;7.65;81.21
15487;BME280;7845;53.698;10.078;2024-03-23T03:34:11;100270.41;;;7.66;81.59
15487;BME280;7845;53.698;10.078;2024-03-23T03:36:36;100255.06;;;7.61;81.93
15487;BME280;7845;53.698;10.078;2024-03-23T03:39:03;100181.47;;;7.17;81.75
15487;BME280;7845;53.698;10.078;2024-03-23T03:41:31;100258.31;;;7.65;81.32
15487;BME280;7845;53.698;10.078;2024-03-23T03:43:56;100239.06;;;7.53;81.67
15487;BME280;7845;53.698;10.078;2024-03-23T03:46:26;100241.69;;;7.53;81.34
15487;BME280;7845;53.698;10.078;2024-03-23T03:48:51;100248.78;;;7.64;81.02
15487;BME280;7845;53.698;10.078;2024-03-23T03:51:17;100243.56;;;7.64;81.00
15487;BME280;7845;53.698;10.078;2024-03-23T03:53:42;100238.34;;;7.64;81.10
15487;BME280;7845;53.698;10.078;2024-03-23T03:56:07;100237.72;;;7.60;81.15
15487;BME280;7845;53.698;10.078;2024-03-23T03:58:32;100221.09;;;7.48;81.61
15487;BME280;7845;53.698;10.078;2024-03-23T04:00:58;100213.03;;;7.51;81.49
15487;BME280;7845;53.698;10.078;2024-03-23T04:03:23;100220.16;;;7.62;81.08
15487;BME280;7845;53.698;10.078;2024-03-23T04:05:52;100225.38;;;7.62;81.79
15487;BME280;7845;53.698;10.078;2024-03-23T04:08:18;100209.19;;;7.57;81.12
15487;BME280;7845;53.698;10.078;2024-03-23T04:10:43;100213.28;;;7.61;80.71
15487;BME280;7845;53.698;10.078;2024-03-23T04:13:09;100093.72;;;6.89;80.68
15487;BME280;7845;53.698;10.078;2024-03-23T04:15:34;100191.22;;;7.52;80.91
15487;BME280;7845;53.698;10.078;2024-03-23T04:17:59;100185.78;;;7.43;81.35
15487;BME280;7845;53.698;10.078;2024-03-23T04:20:25;100186.84;;;7.40;81.43
15487;BME280;7845;53.698;10.078;2024-03-23T04:22:50;100213.78;;;7.53;81.61
15487;BME280;7845;53.698;10.078;2024-03-23T04:25:15;100218.59;;;7.47;81.65
15487;BME280;7845;53.698;10.078;2024-03-23T04:27:40;100203.66;;;7.49;81.77
15487;BME280;7845;53.698;10.078;2024-03-23T04:30:07;100205.84;;;7.42;81.31
15487;BME280;7845;53.698;10.078;2024-03-23T04:32:39;100190.81;;;7.33;81.92
15487;BME280;7845;53.698;10.078;2024-03-23T04:35:05;100185.03;;;7.41;81.21
15487;BME280;7845;53.698;10.078;2024-03-23T04:37:32;100179.63;;;7.44;81.93
15487;BME280;7845;53.698;10.078;2024-03-23T04:39:57;100186.50;;;7.45;81.50
15487;BME280;7845;53.698;10.078;2024-03-23T04:42:23;100198.72;;;7.44;82.07
15487;BME280;7845;53.698;10.078;2024-03-23T04:44:48;100219.53;;;7.46;81.73
15487;BME280;7845;53.698;10.078;2024-03-23T04:47:13;100202.25;;;7.31;81.70
15487;BME280;7845;53.698;10.078;2024-03-23T04:49:38;100214.81;;;7.38;81.82
15487;BME280;7845;53.698;10.078;2024-03-23T04:52:04;100212.63;;;7.32;81.46
15487;BME280;7845;53.698;10.078;2024-03-23T04:54:30;100191.09;;;7.16;82.29
15487;BME280;7845;53.698;10.078;2024-03-23T04:56:56;100205.41;;;7.23;82.08
15487;BME280;7845;53.698;10.078;2024-03-23T04:59:21;100150.22;;;6.90;81.98
15487;BME280;7845;53.698;10.078;2024-03-23T05:01:47;100170.09;;;7.05;82.13
15487;BME280;7845;53.698;10.078;2024-03-23T05:04:12;100204.06;;;7.30;82.53
15487;BME280;7845;53.698;10.078;2024-03-23T05:06:37;100204.88;;;7.31;82.11
15487;BME280;7845;53.698;10.078;2024-03-23T05:09:03;100095.06;;;6.69;82.15
15487;BME280;7845;53.698;10.078;2024-03-23T05:11:32;100115.94;;;6.82;82.31
15487;BME280;7845;53.698;10.078;2024-03-23T05:13:58;100179.09;;;7.26;82.37
15487;BME280;7845;53.698;10.078;2024-03-23T05:16:24;100136.03;;;7.06;81.89
15487;BME280;7845;53.698;10.078;2024-03-23T05:18:49;100091.22;;;6.75;82.29
15487;BME280;7845;53.698;10.078;2024-03-23T05:21:14;100183.47;;;7.38;82.17
15487;BME280;7845;53.698;10.078;2024-03-23T05:23:40;100148.28;;;7.19;81.61
15487;BME280;7845;53.698;10.078;2024-03-23T05:26:05;100153.00;;;7.26;82.18
15487;BME280;7845;53.698;10.078;2024-03-23T05:28:30;100182.13;;;7.45;81.92
15487;BME280;7845;53.698;10.078;2024-03-23T05:30:56;100187.34;;;7.45;81.96
15487;BME280;7845;53.698;10.078;2024-03-23T05:33:24;100195.94;;;7.47;81.93
15487;BME280;7845;53.698;10.078;2024-03-23T05:35:59;100172.41;;;7.35;81.68
15487;BME280;7845;53.698;10.078;2024-03-23T05:38:25;100169.59;;;7.38;82.18
15487;BME280;7845;53.698;10.078;2024-03-23T05:40:57;100146.19;;;7.24;81.50
15487;BME280;7845;53.698;10.078;2024-03-23T05:43:23;100130.84;;;7.19;81.75
15487;BME280;7845;53.698;10.078;2024-03-23T05:45:59;100138.78;;;7.30;81.69
15487;BME280;7845;53.698;10.078;2024-03-23T05:48:28;100168.47;;;7.54;81.39
15487;BME280;7845;53.698;10.078;2024-03-23T05:50:55;100155.06;;;7.46;81.72
15487;BME280;7845;53.698;10.078;2024-03-23T05:53:21;100062.75;;;6.97;81.78
15487;BME280;7845;53.698;10.078;2024-03-23T05:55:46;100175.75;;;7.75;81.65
15487;BME280;7845;53.698;10.078;2024-03-23T05:58:14;100158.41;;;7.74;81.28
15487;BME280;7845;53.698;10.078;2024-03-23T06:00:39;100138.78;;;7.68;81.03
15487;BME280;7845;53.698;10.078;2024-03-23T06:03:05;100160.97;;;7.86;81.01
15487;BME280;7845;53.698;10.078;2024-03-23T06:05:30;100128.94;;;7.72;80.49
15487;BME280;7845;53.698;10.078;2024-03-23T06:07:55;100138.84;;;7.79;80.95
15487;BME280;7845;53.698;10.078;2024-03-23T06:10:20;100153.88;;;7.88;80.47
15487;BME280;7845;53.698;10.078;2024-03-23T06:12:46;100169.13;;;7.94;80.90
15487;BME280;7845;53.698;10.078;2024-03-23T06:15:11;100155.13;;;7.95;80.56
15487;BME280;7845;53.698;10.078;2024-03-23T06:17:37;100101.22;;;7.69;79.96
15487;BME280;7845;53.698;10.078;2024-03-23T06:20:03;100157.28;;;8.14;79.90
15487;BME280;7845;53.698;10.078;2024-03-23T06:22:29;100056.88;;;7.56;80.10
15487;BME280;7845;53.698;10.078;2024-03-23T06:24:54;100165.00;;;8.28;80.10
15487;BME280;7845;53.698;10.078;2024-03-23T06:27:20;100162.81;;;8.35;79.99
15487;BME280;7845;53.698;10.078;2024-03-23T06:29:45;100159.13;;;8.37;79.38
15487;BME280;7845;53.698;10.078;2024-03-23T06:32:10;100147.91;;;8.35;79.39
15487;BME280;7845;53.698;10.078;2024-03-23T06:34:35;100154.28;;;8.44;79.49
15487;BME280;7845;53.698;10.078;2024-03-23T06:37:01;100146.53;;;8.42;79.57
15487;BME280;7845;53.698;10.078;2024-03-23T06:39:27;100130.75;;;8.44;79.45
15487;BME280;7845;53.698;10.078;2024-03-23T06:41:53;100142.72;;;8.59;78.99
15487;BME280;7845;53.698;10.078;2024-03-23T06:44:19;100145.03;;;8.75;79.13
15487;BME280;7845;53.698;10.078;2024-03-23T06:46:45;100142.13;;;8.90;78.87
15487;BME280;7845;53.698;10.078;2024-03-23T06:49:10;100148.44;;;8.99;78.76
15487;BME280;7845;53.698;10.078;2024-03-23T06:51:36;100080.78;;;8.60;77.55
15487;BME280;7845;53.698;10.078;2024-03-23T06:54:03;100082.66;;;8.57;77.40
15487;BME280;7845;53.698;10.078;2024-03-23T06:56:28;100123.63;;;8.70;77.54
15487;BME280;7845;53.698;10.078;2024-03-23T06:58:54;100131.56;;;8.68;77.64
15487;BME280;7845;53.698;10.078;2024-03-23T07:01:19;100134.41;;;8.65;77.66
15487;BME280;7845;53.698;10.078;2024-03-23T07:03:44;100133.66;;;8.63;77.95
15487;BME280;7845;53.698;10.078;2024-03-23T07:06:10;100113.50;;;8.41;78.12
15487;BME280;7845;53.698;10.078;2024-03-23T07:08:35;100100.66;;;8.26;78.37
15487;BME280;7845;53.698;10.078;2024-03-23T07:11:00;100135.88;;;8.45;78.18
15487;BME280;7845;53.698;10.078;2024-03-23T07:13:26;100106.34;;;8.20;77.95
15487;BME280;7845;53.698;10.078;2024-03-23T07:15:52;100138.75;;;8.30;78.24
15487;BME280;7845;53.698;10.078;2024-03-23T07:18:18;100137.50;;;8.23;78.95
15487;BME280;7845;53.698;10.078;2024-03-23T07:23:19;100143.78;;;8.20;78.67
15487;BME280;7845;53.698;10.078;2024-03-23T07:25:45;100134.56;;;8.15;79.39
15487;BME280;7845;53.698;10.078;2024-03-23T07:28:10;100147.22;;;8.33;79.10
15487;BME280;7845;53.698;10.078;2024-03-23T07:30:35;100090.47;;;8.10;78.97
15487;BME280;7845;53.698;10.078;2024-03-23T07:33:00;100126.13;;;8.47;78.87
15487;BME280;7845;53.698;10.078;2024-03-23T07:35:26;100139.25;;;8.82;78.65
15487;BME280;7845;53.698;10.078;2024-03-23T07:37:51;100108.66;;;8.83;78.17
15487;BME280;7845;53.698;10.078;2024-03-23T07:40:16;100116.59;;;9.05;77.63
15487;BME280;7845;53.698;10.078;2024-03-23T07:42:41;100136.72;;;9.27;77.26
15487;BME280;7845;53.698;10.078;2024-03-23T07:45:07;100143.44;;;9.42;76.55
15487;BME280;7845;53.698;10.078;2024-03-23T07:47:34;100137.72;;;9.48;76.45
15487;BME280;7845;53.698;10.078;2024-03-23T07:49:59;100076.13;;;9.20;76.51
15487;BME280;7845;53.698;10.078;2024-03-23T07:52:28;100115.56;;;9.41;75.13
15487;BME280;7845;53.698;10.078;2024-03-23T07:54:53;100138.28;;;9.40;75.27
15487;BME280;7845;53.698;10.078;2024-03-23T07:57:19;100137.47;;;9.29;75.24
15487;BME280;7845;53.698;10.078;2024-03-23T07:59:44;100124.22;;;9.08;75.54
15487;BME280;7845;53.698;10.078;2024-03-23T08:02:11;100132.13;;;8.95;75.58
15487;BME280;7845;53.698;10.078;2024-03-23T08:04:36;100086.56;;;8.63;76.56
15487;BME280;7845;53.698;10.078;2024-03-23T08:07:02;100103.06;;;8.76;76.49
15487;BME280;7845;53.698;10.078;2024-03-23T08:09:28;100106.38;;;8.78;76.78
15487;BME280;7845;53.698;10.078;2024-03-23T08:11:53;100121.00;;;8.81;76.74
15487;BME280;7845;53.698;10.078;2024-03-23T08:14:19;100123.56;;;8.93;76.97
15487;BME280;7845;53.698;10.078;2024-03-23T08:16:44;100112.97;;;8.84;77.23
15487;BME280;7845;53.698;10.078;2024-03-23T08:19:14;100097.13;;;8.85;77.38
15487;BME280;7845;53.698;10.078;2024-03-23T08:21:39;100113.75;;;9.08;77.08
15487;BME280;7845;53.698;10.078;2024-03-23T08:24:05;100091.09;;;8.96;76.55
15487;BME280;7845;53.698;10.078;2024-03-23T08:26:30;100111.25;;;9.18;76.76
15487;BME280;7845;53.698;10.078;2024-03-23T08:28:55;100088.25;;;9.10;76.34
15487;BME280;7845;53.698;10.078;2024-03-23T08:31:21;100072.06;;;9.16;76.09
15487;BME280;7845;53.698;10.078;2024-03-23T08:33:46;100093.41;;;9.45;75.79
15487;BME280;7845;53.698;10.078;2024-03-23T08:36:12;100067.47;;;9.53;75.18
15487;BME280;7845;53.698;10.078;2024-03-23T08:38:39;100049.56;;;9.58;74.70
15487;BME280;7845;53.698;10.078;2024-03-23T08:41:09;100090.16;;;10.08;74.34
15487;BME280;7845;53.698;10.078;2024-03-23T08:43:39;100011.00;;;9.71;73.96
15487;BME280;7845;53.698;10.078;2024-03-23T08:46:15;100091.00;;;10.51;73.21
15487;BME280;7845;53.698;10.078;2024-03-23T08:48:45;100063.47;;;10.67;71.98
15487;BME280;7845;53.698;10.078;2024-03-23T08:51:12;100040.25;;;10.62;71.15
15487;BME280;7845;53.698;10.078;2024-03-23T08:53:39;100095.78;;;10.78;69.73
15487;BME280;7845;53.698;10.078;2024-03-23T08:56:05;100064.69;;;10.63;69.52
15487;BME280;7845;53.698;10.078;2024-03-23T08:58:32;100046.41;;;10.51;69.60
15487;BME280;7845;53.698;10.078;2024-03-23T09:01:03;100031.75;;;10.38;69.74
15487;BME280;7845;53.698;10.078;2024-03-23T09:03:29;100070.03;;;10.72;70.75
15487;BME280;7845;53.698;10.078;2024-03-23T09:05:54;100056.19;;;10.70;69.40
15487;BME280;7845;53.698;10.078;2024-03-23T09:08:21;100069.38;;;10.80;69.84
15487;BME280;7845;53.698;10.078;2024-03-23T09:10:48;100069.47;;;10.89;69.16
15487;BME280;7845;53.698;10.078;2024-03-23T09:13:13;100057.41;;;10.87;67.56
15487;BME280;7845;53.698;10.078;2024-03-23T09:15:47;100048.50;;;10.78;66.97
15487;BME280;7845;53.698;10.078;2024-03-23T09:18:13;100069.84;;;10.85;66.89
15487;BME280;7845;53.698;10.078;2024-03-23T09:20:38;100074.97;;;10.66;66.48
15487;BME280;7845;53.698;10.078;2024-03-23T09:23:04;100067.03;;;10.45;65.79
15487;BME280;7845;53.698;10.078;2024-03-23T09:25:29;100039.47;;;10.19;67.31
15487;BME280;7845;53.698;10.078;2024-03-23T09:27:54;100039.97;;;10.24;66.38
15487;BME280;7845;53.698;10.078;2024-03-23T09:30:20;100069.66;;;10.45;66.58
15487;BME280;7845;53.698;10.078;2024-03-23T09:32:46;100070.53;;;10.66;66.62
15487;BME280;7845;53.698;10.078;2024-03-23T09:35:12;100066.69;;;10.70;66.07
15487;BME280;7845;53.698;10.078;2024-03-23T09:37:40;100061.75;;;10.77;65.92
15487;BME280;7845;53.698;10.078;2024-03-23T09:40:14;100062.06;;;10.83;66.22
15487;BME280;7845;53.698;10.078;2024-03-23T09:42:41;100041.59;;;10.77;64.89
15487;BME280;7845;53.698;10.078;2024-03-23T09:45:17;100040.94;;;10.85;65.13
15487;BME280;7845;53.698;10.078;2024-03-23T09:47:45;100048.25;;;11.02;65.24
15487;BME280;7845;53.698;10.078;2024-03-23T09:50:13;99977.75;;;10.77;64.31
15487;BME280;7845;53.698;10.078;2024-03-23T09:52:40;100046.53;;;11.42;63.88
15487;BME280;7845;53.698;10.078;2024-03-23T09:55:08;99986.38;;;11.19;64.27
15487;BME280;7845;53.698;10.078;2024-03-23T09:57:35;100009.72;;;11.42;64.23
15487;BME280;7845;53.698;10.078;2024-03-23T10:00:01;100046.41;;;11.84;61.99
15487;BME280;7845;53.698;10.078;2024-03-23T10:02:27;100053.91;;;12.07;62.81
15487;BME280;7845;53.698;10.078;2024-03-23T10:04:53;99993.94;;;11.92;61.25
15487;BME280;7845;53.698;10.078;2024-03-23T10:07:19;100044.94;;;12.48;61.60
15487;BME280;7845;53.698;10.078;2024-03-23T10:09:45;99950.88;;;11.74;60.03
15487;BME280;7845;53.698;10.078;2024-03-23T10:12:13;100000.75;;;11.94;60.70
15487;BME280;7845;53.698;10.078;2024-03-23T10:14:39;100036.34;;;12.08;61.79
15487;BME280;7845;53.698;10.078;2024-03-23T10:19:41;99999.75;;;11.95;62.20
15487;BME280;7845;53.698;10.078;2024-03-23T10:22:07;99993.41;;;11.98;61.72
15487;BME280;7845;53.698;10.078;2024-03-23T10:24:33;100030.41;;;12.16;60.44
15487;BME280;7845;53.698;10.078;2024-03-23T10:26:58;100036.00;;;11.92;61.36
15487;BME280;7845;53.698;10.078;2024-03-23T10:29:23;99982.47;;;11.43;59.29
15487;BME280;7845;53.698;10.078;2024-03-23T10:31:51;100038.16;;;11.68;61.25
15487;BME280;7845;53.698;10.078;2024-03-23T10:34:16;100026.75;;;11.48;59.86
15487;BME280;7845;53.698;10.078;2024-03-23T10:36:42;99997.09;;;11.36;60.66
15487;BME280;7845;53.698;10.078;2024-03-23T10:39:09;99982.47;;;11.03;59.96
15487;BME280;7845;53.698;10.078;2024-03-23T10:41:36;99977.94;;;10.85;60.36
15487;BME280;7845;53.698;10.078;2024-03-23T10:44:02;99901.66;;;10.35;60.69
15487;BME280;7845;53.698;10.078;2024-03-23T10:46:27;100002.94;;;10.79;60.74
15487;BME280;7845;53.698;10.078;2024-03-23T10:48:52;99972.44;;;10.67;61.72
15487;BME280;7845;53.698;10.078;2024-03-23T10:51:18;100010.13;;;11.07;62.18
15487;BME280;7845;53.698;10.078;2024-03-23T10:53:44;99958.84;;;11.13;62.88
15487;BME280;7845;53.698;10.078;2024-03-23T10:56:12;100030.56;;;11.74;62.44
15487;BME280;7845;53.698;10.078;2024-03-23T10:58:44;99952.88;;;11.51;60.78
15487;BME280;7845;53.698;10.078;2024-03-23T11:01:12;100014.00;;;11.74;57.55
15487;BME280;7845;53.698;10.078;2024-03-23T11:03:39;100005.56;;;11.99;58.86
15487;BME280;7845;53.698;10.078;2024-03-23T11:06:07;99910.66;;;11.43;58.11
15487;BME280;7845;53.698;10.078;2024-03-23T11:08:36;100001.13;;;11.80;57.85
15487;BME280;7845;53.698;10.078;2024-03-23T11:11:17;100000.50;;;11.67;57.63
15487;BME280;7845;53.698;10.078;2024-03-23T11:13:44;99951.84;;;11.23;59.20
15487;BME280;7845;53.698;10.078;2024-03-23T11:16:26;100001.16;;;11.50;58.34
15487;BME280;7845;53.698;10.078;2024-03-23T11:19:33;100005.91;;;11.56;59.75
15487;BME280;7845;53.698;10.078;2024-03-23T11:21:59;99996.72;;;11.50;57.48
15487;BME280;7845;53.698;10.078;2024-03-23T11:24:25;99934.09;;;11.16;58.10
15487;BME280;7845;53.698;10.078;2024-03-23T11:26:50;99936.81;;;11.04;57.14
15487;BME280;7845;53.698;10.078;2024-03-23T11:29:16;100002.22;;;11.38;58.06
15487;BME280;7845;53.698;10.078;2024-03-23T11:31:50;99971.91;;;11.24;57.06
15487;BME280;7845;53.698;10.078;2024-03-23T11:34:16;99958.09;;;11.32;57.96
15487;BME280;7845;53.698;10.078;2024-03-23T11:36:43;99961.06;;;11.57;58.50
15487;BME280;7845;53.698;10.078;2024-03-23T11:39:15;100005.22;;;11.64;56.38
15487;BME280;7845;53.698;10.078;2024-03-23T11:41:52;99990.78;;;11.48;55.02
15487;BME280;7845;53.698;10.078;2024-03-23T11:44:23;99998.50;;;11.40;54.78
15487;BME280;7845;53.698;10.078;2024-03-23T11:46:50;99999.22;;;11.42;53.25
15487;BME280;7845;53.698;10.078;2024-03-23T11:49:29;99999.78;;;11.46;52.38
15487;BME280;7845;53.698;10.078;2024-03-23T11:51:55;99988.00;;;11.50;53.00
15487;BME280;7845;53.698;10.078;2024-03-23T11:54:25;99968.84;;;11.29;53.99
15487;BME280;7845;53.698;10.078;2024-03-23T11:57:00;99990.75;;;11.39;54.22
15487;BME280;7845;53.698;10.078;2024-03-23T12:01:59;100004.16;;;10.75;57.57
15487;BME280;7845;53.698;10.078;2024-03-23T12:04:28;100052.34;;;10.53;61.08
15487;BME280;7845;53.698;10.078;2024-03-23T12:07:16;100055.88;;;9.89;62.55
15487;BME280;7845;53.698;10.078;2024-03-23T12:09:46;100064.59;;;9.45;64.31
15487;BME280;7845;53.698;10.078;2024-03-23T12:12:17;99949.16;;;8.35;66.21
15487;BME280;7845;53.698;10.078;2024-03-23T12:14:43;99994.34;;;8.37;67.66
15487;BME280;7845;53.698;10.078;2024-03-23T12:17:10;100023.34;;;8.69;68.95
15487;BME280;7845;53.698;10.078;2024-03-23T12:19:36;100028.94;;;8.76;69.62
15487;BME280;7845;53.698;10.078;2024-03-23T12:22:03;100027.19;;;8.87;69.35
15487;BME280;7845;53.698;10.078;2024-03-23T12:24:29;99918.38;;;8.39;69.83
15487;BME280;7845;53.698;10.078;2024-03-23T12:26:54;99978.88;;;9.02;69.71
15487;BME280;7845;53.698;10.078;2024-03-23T12:29:20;100025.41;;;9.54;69.52
15487;BME280;7845;53.698;10.078;2024-03-23T12:31:45;99932.44;;;9.16;69.44
15487;BME280;7845;53.698;10.078;2024-03-23T12:34:10;99980.56;;;9.80;69.28
15487;BME280;7845;53.698;10.078;2024-03-23T12:36:36;100028.19;;;10.39;68.54
15487;BME280;7845;53.698;10.078;2024-03-23T12:39:01;99987.72;;;10.41;66.85
15487;BME280;7845;53.698;10.078;2024-03-23T12:41:26;99964.00;;;10.64;66.41
15487;BME280;7845;53.698;10.078;2024-03-23T12:43:51;100035.25;;;11.31;65.56
15487;BME280;7845;53.698;10.078;2024-03-23T12:46:17;100025.16;;;11.36;65.18
15487;BME280;7845;53.698;10.078;2024-03-23T12:48:44;100046.19;;;11.05;63.15
15487;BME280;7845;53.698;10.078;2024-03-23T12:51:10;100050.59;;;10.43;63.42
15487;BME280;7845;53.698;10.078;2024-03-23T12:53:35;100051.91;;;10.17;64.39
15487;BME280;7845;53.698;10.078;2024-03-23T12:56:00;100062.31;;;9.85;62.99
15487;BME280;7845;53.698;10.078;2024-03-23T12:58:25;100056.28;;;9.40;63.16
15487;BME280;7845;53.698;10.078;2024-03-23T13:00:51;100050.53;;;9.24;64.50
15487;BME280;7845;53.698;10.078;2024-03-23T13:03:16;99992.06;;;8.79;64.33
15487;BME280;7845;53.698;10.078;2024-03-23T13:05:42;99942.34;;;8.68;65.68
15487;BME280;7845;53.698;10.078;2024-03-23T13:08:07;100020.06;;;9.34;65.15
15487;BME280;7845;53.698;10.078;2024-03-23T13:10:32;100023.25;;;9.60;65.36
15487;BME280;7845;53.698;10.078;2024-03-23T13:12:58;100025.94;;;9.91;65.93
15487;BME280;7845;53.698;10.078;2024-03-23T13:15:23;100014.94;;;10.20;66.63
15487;BME280;7845;53.698;10.078;2024-03-23T13:17:48;100015.13;;;10.48;64.52
15487;BME280;7845;53.698;10.078;2024-03-23T13:20:13;100014.13;;;10.61;64.23
15487;BME280;7845;53.698;10.078;2024-03-23T13:22:40;100029.03;;;10.60;62.87
15487;BME280;7845;53.698;10.078;2024-03-23T13:25:06;100030.69;;;10.40;62.19
15487;BME280;7845;53.698;10.078;2024-03-23T13:27:31;100007.38;;;10.26;64.17
15487;BME280;7845;53.698;10.078;2024-03-23T13:29:56;99966.63;;;10.11;64.05
15487;BME280;7845;53.698;10.078;2024-03-23T13:32:21;99987.41;;;10.35;63.55
15487;BME280;7845;53.698;10.078;2024-03-23T13:34:47;100070.59;;;10.23;62.41
15487;BME280;7845;53.698;10.078;2024-03-23T13:37:15;100054.94;;;9.34;62.20
15487;BME280;7845;53.698;10.078;2024-03-23T13:39:40;100027.19;;;8.87;63.20
15487;BME280;7845;53.698;10.078;2024-03-23T13:42:07;100006.13;;;8.43;64.64
15487;BME280;7845;53.698;10.078;2024-03-23T13:44:34;100064.59;;;8.66;65.58
15487;BME280;7845;53.698;10.078;2024-03-23T13:46:59;100060.63;;;8.49;65.94
15487;BME280;7845;53.698;10.078;2024-03-23T13:49:29;100048.34;;;8.26;67.56
15487;BME280;7845;53.698;10.078;2024-03-23T13:51:56;99992.75;;;8.00;68.92
15487;BME280;7845;53.698;10.078;2024-03-23T13:54:23;99993.78;;;8.45;69.88